aviador You're here:

MMZH Decoded Metar

ZIHUATANEJO in MEXICO
Report Time2017-07-21 01:45:00
UTC Time2017-07-21 02:53:13
Flight Rules Old
WindCalm
Visibility9999 m
Phenomena:N/A
Clouds:Few 080 Hf
Broken 250 Hf
Expected CloudBase > 2,000 ft AGL from Temp-Dew spread
Ceiling25,000 ft
Temp30°C (ISA +15)
Dew Point25°C (75% RH)
Heat Index36.3°C
QNH1012 hPa
Density Alt2,192 ft
Elevation20 ft
Report Wrong Elevation
Raw Report
MMZH 210145Z 00000KT 7SM FEW080 BKN250 30/25 A2988 RMK 8/032 HZY
ST=

Extra information for MMZH:More info

Metar Taf Metar & Taf Last 4 Metars F.Rules Stats Wind Profile Meteogram Temp Stats Airport Information Weather charts Add Link Nearby VenuesMetar ALERT Operation Metar Decoded Social comments